sensor_id;sensor_type;location;lat;lon;timestamp;temperature;humidity
1956;DHT22;978;48.314;11.562;2022-10-18T00:00:53;22.70;88.10
1956;DHT22;978;48.314;11.562;2022-10-18T00:03:21;22.70;88.10
1956;DHT22;978;48.314;11.562;2022-10-18T00:05:49;22.70;88.10
1956;DHT22;978;48.314;11.562;2022-10-18T00:08:16;22.70;88.10
1956;DHT22;978;48.314;11.562;2022-10-18T00:10:43;22.70;88.10
1956;DHT22;978;48.314;11.562;2022-10-18T00:13:11;22.70;88.10
1956;DHT22;978;48.314;11.562;2022-10-18T00:15:37;22.70;88.10
1956;DHT22;978;48.314;11.562;2022-10-18T00:18:04;22.70;88.10
1956;DHT22;978;48.314;11.562;2022-10-18T00:20:32;22.70;88.10
1956;DHT22;978;48.314;11.562;2022-10-18T00:22:59;22.70;88.10
1956;DHT22;978;48.314;11.562;2022-10-18T00:25:26;22.70;88.10
1956;DHT22;978;48.314;11.562;2022-10-18T00:27:52;22.70;88.10
1956;DHT22;978;48.314;11.562;2022-10-18T00:30:19;22.70;88.10
1956;DHT22;978;48.314;11.562;2022-10-18T00:32:46;22.70;88.10
1956;DHT22;978;48.314;11.562;2022-10-18T00:35:13;22.70;88.10
1956;DHT22;978;48.314;11.562;2022-10-18T00:37:41;22.70;88.10
1956;DHT22;978;48.314;11.562;2022-10-18T00:40:08;22.70;88.10
1956;DHT22;978;48.314;11.562;2022-10-18T00:42:36;22.70;88.10
1956;DHT22;978;48.314;11.562;2022-10-18T00:45:18;22.70;88.10
1956;DHT22;978;48.314;11.562;2022-10-18T00:47:48;22.70;88.10
1956;DHT22;978;48.314;11.562;2022-10-18T00:50:16;22.70;88.10
1956;DHT22;978;48.314;11.562;2022-10-18T00:52:48;22.70;88.10
1956;DHT22;978;48.314;11.562;2022-10-18T00:55:16;22.70;88.10
1956;DHT22;978;48.314;11.562;2022-10-18T00:57:44;22.70;88.10
1956;DHT22;978;48.314;11.562;2022-10-18T01:00:12;22.70;88.10
1956;DHT22;978;48.314;11.562;2022-10-18T01:02:40;22.70;88.10
1956;DHT22;978;48.314;11.562;2022-10-18T01:05:10;22.70;88.00
1956;DHT22;978;48.314;11.562;2022-10-18T01:08:00;22.70;88.00
1956;DHT22;978;48.314;11.562;2022-10-18T01:10:35;22.70;88.00
1956;DHT22;978;48.314;11.562;2022-10-18T01:13:14;22.70;88.10
1956;DHT22;978;48.314;11.562;2022-10-18T01:15:51;22.70;88.10
1956;DHT22;978;48.314;11.562;2022-10-18T01:18:24;22.70;88.00
1956;DHT22;978;48.314;11.562;2022-10-18T01:21:07;22.70;88.00
1956;DHT22;978;48.314;11.562;2022-10-18T01:23:51;22.70;88.00
1956;DHT22;978;48.314;11.562;2022-10-18T01:26:31;22.70;88.10
1956;DHT22;978;48.314;11.562;2022-10-18T01:29:13;22.70;88.00
1956;DHT22;978;48.314;11.562;2022-10-18T01:31:45;22.70;88.00
1956;DHT22;978;48.314;11.562;2022-10-18T01:34:14;22.70;88.00
1956;DHT22;978;48.314;11.562;2022-10-18T01:36:45;22.70;88.00
1956;DHT22;978;48.314;11.562;2022-10-18T01:39:15;22.70;88.10
1956;DHT22;978;48.314;11.562;2022-10-18T01:41:44;22.70;88.00
1956;DHT22;978;48.314;11.562;2022-10-18T01:44:15;22.70;88.00
1956;DHT22;978;48.314;11.562;2022-10-18T01:46:46;22.70;88.00
1956;DHT22;978;48.314;11.562;2022-10-18T01:49:13;22.70;88.00
1956;DHT22;978;48.314;11.562;2022-10-18T01:51:39;22.70;88.00
1956;DHT22;978;48.314;11.562;2022-10-18T01:54:06;22.70;88.00
1956;DHT22;978;48.314;11.562;2022-10-18T01:56:39;22.70;88.00
1956;DHT22;978;48.314;11.562;2022-10-18T01:59:21;22.70;88.00
1956;DHT22;978;48.314;11.562;2022-10-18T02:01:54;22.70;88.00
1956;DHT22;978;48.314;11.562;2022-10-18T02:04:31;22.70;88.00
1956;DHT22;978;48.314;11.562;2022-10-18T02:07:05;22.70;88.00
1956;DHT22;978;48.314;11.562;2022-10-18T02:09:37;22.70;88.00
1956;DHT22;978;48.314;11.562;2022-10-18T02:12:09;22.70;87.90
1956;DHT22;978;48.314;11.562;2022-10-18T02:14:37;22.70;87.90
1956;DHT22;978;48.314;11.562;2022-10-18T02:17:09;22.70;87.90
1956;DHT22;978;48.314;11.562;2022-10-18T02:19:38;22.70;87.90
1956;DHT22;978;48.314;11.562;2022-10-18T02:22:07;22.70;88.00
1956;DHT22;978;48.314;11.562;2022-10-18T02:24:38;22.70;88.50
1956;DHT22;978;48.314;11.562;2022-10-18T02:27:05;22.70;87.90
1956;DHT22;978;48.314;11.562;2022-10-18T02:29:32;22.70;87.90
1956;DHT22;978;48.314;11.562;2022-10-18T02:32:03;22.70;87.90
1956;DHT22;978;48.314;11.562;2022-10-18T02:34:36;22.70;87.90
1956;DHT22;978;48.314;11.562;2022-10-18T02:37:03;22.70;87.90
1956;DHT22;978;48.314;11.562;2022-10-18T02:39:33;22.70;87.90
1956;DHT22;978;48.314;11.562;2022-10-18T02:42:02;22.70;87.90
1956;DHT22;978;48.314;11.562;2022-10-18T02:44:31;22.70;87.90
1956;DHT22;978;48.314;11.562;2022-10-18T02:46:58;22.70;87.90
1956;DHT22;978;48.314;11.562;2022-10-18T02:49:24;22.70;87.90
1956;DHT22;978;48.314;11.562;2022-10-18T02:51:52;22.70;87.90
1956;DHT22;978;48.314;11.562;2022-10-18T02:54:19;22.70;88.00
1956;DHT22;978;48.314;11.562;2022-10-18T02:56:46;22.70;87.90
1956;DHT22;978;48.314;11.562;2022-10-18T02:59:13;22.70;87.90
1956;DHT22;978;48.314;11.562;2022-10-18T03:01:40;22.70;87.90
1956;DHT22;978;48.314;11.562;2022-10-18T03:04:06;22.70;87.90
1956;DHT22;978;48.314;11.562;2022-10-18T03:06:33;22.70;87.90
1956;DHT22;978;48.314;11.562;2022-10-18T03:09:03;22.70;87.90
1956;DHT22;978;48.314;11.562;2022-10-18T03:11:30;22.70;87.90
1956;DHT22;978;48.314;11.562;2022-10-18T03:13:57;22.70;87.90
1956;DHT22;978;48.314;11.562;2022-10-18T03:16:24;22.70;87.90
1956;DHT22;978;48.314;11.562;2022-10-18T03:18:50;22.70;87.90
1956;DHT22;978;48.314;11.562;2022-10-18T03:21:17;22.70;87.80
1956;DHT22;978;48.314;11.562;2022-10-18T03:23:44;22.70;87.80
1956;DHT22;978;48.314;11.562;2022-10-18T03:26:12;22.70;87.80
1956;DHT22;978;48.314;11.562;2022-10-18T03:28:38;22.70;87.80
1956;DHT22;978;48.314;11.562;2022-10-18T03:31:05;22.70;87.80
1956;DHT22;978;48.314;11.562;2022-10-18T03:33:32;22.70;87.90
1956;DHT22;978;48.314;11.562;2022-10-18T03:35:59;22.70;87.80
1956;DHT22;978;48.314;11.562;2022-10-18T03:38:26;22.70;87.90
1956;DHT22;978;48.314;11.562;2022-10-18T03:40:53;22.70;87.80
1956;DHT22;978;48.314;11.562;2022-10-18T03:43:21;22.70;87.80
1956;DHT22;978;48.314;11.562;2022-10-18T03:45:48;22.70;87.80
1956;DHT22;978;48.314;11.562;2022-10-18T03:48:14;22.70;87.80
1956;DHT22;978;48.314;11.562;2022-10-18T03:50:42;22.70;87.80
1956;DHT22;978;48.314;11.562;2022-10-18T03:53:09;22.70;87.80
1956;DHT22;978;48.314;11.562;2022-10-18T03:55:36;22.70;87.80
1956;DHT22;978;48.314;11.562;2022-10-18T03:58:03;22.70;87.80
1956;DHT22;978;48.314;11.562;2022-10-18T04:00:31;22.70;87.80
1956;DHT22;978;48.314;11.562;2022-10-18T04:02:58;22.70;87.80
1956;DHT22;978;48.314;11.562;2022-10-18T04:05:25;22.70;87.80
1956;DHT22;978;48.314;11.562;2022-10-18T04:07:53;22.70;87.80
1956;DHT22;978;48.314;11.562;2022-10-18T04:10:19;22.70;87.80
1956;DHT22;978;48.314;11.562;2022-10-18T04:12:46;22.70;87.70
1956;DHT22;978;48.314;11.562;2022-10-18T04:15:13;22.70;87.70
1956;DHT22;978;48.314;11.562;2022-10-18T04:17:41;22.70;88.30
1956;DHT22;978;48.314;11.562;2022-10-18T04:20:08;22.70;87.70
1956;DHT22;978;48.314;11.562;2022-10-18T04:22:35;22.70;87.70
1956;DHT22;978;48.314;11.562;2022-10-18T04:25:03;22.70;87.60
1956;DHT22;978;48.314;11.562;2022-10-18T04:27:30;22.70;87.50
1956;DHT22;978;48.314;11.562;2022-10-18T04:29:56;22.70;87.50
1956;DHT22;978;48.314;11.562;2022-10-18T04:32:23;22.70;87.40
1956;DHT22;978;48.314;11.562;2022-10-18T04:34:53;22.70;87.30
1956;DHT22;978;48.314;11.562;2022-10-18T04:37:20;22.70;87.30
1956;DHT22;978;48.314;11.562;2022-10-18T04:39:46;22.70;87.30
1956;DHT22;978;48.314;11.562;2022-10-18T04:42:13;22.70;87.20
1956;DHT22;978;48.314;11.562;2022-10-18T04:44:40;22.70;87.20
1956;DHT22;978;48.314;11.562;2022-10-18T04:47:07;22.70;87.10
1956;DHT22;978;48.314;11.562;2022-10-18T04:49:33;22.70;87.10
1956;DHT22;978;48.314;11.562;2022-10-18T04:52:02;22.70;87.00
1956;DHT22;978;48.314;11.562;2022-10-18T04:54:29;22.70;87.00
1956;DHT22;978;48.314;11.562;2022-10-18T04:56:56;22.70;87.00
1956;DHT22;978;48.314;11.562;2022-10-18T04:59:22;22.70;86.90
1956;DHT22;978;48.314;11.562;2022-10-18T05:01:49;22.70;86.90
1956;DHT22;978;48.314;11.562;2022-10-18T05:04:16;22.70;86.80
1956;DHT22;978;48.314;11.562;2022-10-18T05:06:42;22.70;86.80
1956;DHT22;978;48.314;11.562;2022-10-18T05:09:11;22.70;86.80
1956;DHT22;978;48.314;11.562;2022-10-18T05:11:38;22.70;86.80
1956;DHT22;978;48.314;11.562;2022-10-18T05:14:04;22.70;86.70
1956;DHT22;978;48.314;11.562;2022-10-18T05:16:31;22.70;86.70
1956;DHT22;978;48.314;11.562;2022-10-18T05:18:58;22.70;86.60
1956;DHT22;978;48.314;11.562;2022-10-18T05:21:24;22.70;86.60
1956;DHT22;978;48.314;11.562;2022-10-18T05:23:54;22.70;86.50
1956;DHT22;978;48.314;11.562;2022-10-18T05:26:22;22.70;86.60
1956;DHT22;978;48.314;11.562;2022-10-18T05:28:49;22.70;86.50
1956;DHT22;978;48.314;11.562;2022-10-18T05:31:16;22.70;86.50
1956;DHT22;978;48.314;11.562;2022-10-18T05:33:43;22.70;86.50
1956;DHT22;978;48.314;11.562;2022-10-18T05:36:10;22.70;86.50
1956;DHT22;978;48.314;11.562;2022-10-18T05:38:38;22.70;86.50
1956;DHT22;978;48.314;11.562;2022-10-18T05:41:06;22.70;86.40
1956;DHT22;978;48.314;11.562;2022-10-18T05:43:34;22.70;86.30
1956;DHT22;978;48.314;11.562;2022-10-18T05:46:01;22.70;86.30
1956;DHT22;978;48.314;11.562;2022-10-18T05:48:28;22.70;86.30
1956;DHT22;978;48.314;11.562;2022-10-18T05:50:56;22.70;86.30
1956;DHT22;978;48.314;11.562;2022-10-18T05:53:23;22.70;86.30
1956;DHT22;978;48.314;11.562;2022-10-18T05:55:50;22.70;86.20
1956;DHT22;978;48.314;11.562;2022-10-18T05:58:17;22.70;86.20
1956;DHT22;978;48.314;11.562;2022-10-18T06:00:45;22.70;86.20
1956;DHT22;978;48.314;11.562;2022-10-18T06:03:12;22.70;86.10
1956;DHT22;978;48.314;11.562;2022-10-18T06:05:38;22.70;86.20
1956;DHT22;978;48.314;11.562;2022-10-18T06:08:05;22.70;86.10
1956;DHT22;978;48.314;11.562;2022-10-18T06:10:32;22.70;86.10
1956;DHT22;978;48.314;11.562;2022-10-18T06:12:59;22.70;86.00
1956;DHT22;978;48.314;11.562;2022-10-18T06:15:26;22.70;86.00
1956;DHT22;978;48.314;11.562;2022-10-18T06:17:54;22.70;86.00
1956;DHT22;978;48.314;11.562;2022-10-18T06:20:21;22.70;86.00
1956;DHT22;978;48.314;11.562;2022-10-18T06:22:50;22.70;85.90
1956;DHT22;978;48.314;11.562;2022-10-18T06:25:17;22.70;85.90
1956;DHT22;978;48.314;11.562;2022-10-18T06:27:44;22.70;85.90
1956;DHT22;978;48.314;11.562;2022-10-18T06:30:11;22.70;85.90
1956;DHT22;978;48.314;11.562;2022-10-18T06:32:37;22.70;85.90
1956;DHT22;978;48.314;11.562;2022-10-18T06:35:06;22.70;85.90
1956;DHT22;978;48.314;11.562;2022-10-18T06:37:33;22.70;85.80
1956;DHT22;978;48.314;11.562;2022-10-18T06:40:01;22.70;85.80
1956;DHT22;978;48.314;11.562;2022-10-18T06:42:28;22.70;85.90
1956;DHT22;978;48.314;11.562;2022-10-18T06:44:55;22.70;85.90
1956;DHT22;978;48.314;11.562;2022-10-18T06:47:22;22.70;85.80
1956;DHT22;978;48.314;11.562;2022-10-18T06:49:49;22.70;85.80
1956;DHT22;978;48.314;11.562;2022-10-18T06:52:17;22.70;85.80
1956;DHT22;978;48.314;11.562;2022-10-18T06:54:45;22.70;85.80
1956;DHT22;978;48.314;11.562;2022-10-18T06:57:11;22.70;85.70
1956;DHT22;978;48.314;11.562;2022-10-18T06:59:38;22.70;85.70
1956;DHT22;978;48.314;11.562;2022-10-18T07:02:05;22.70;85.70
1956;DHT22;978;48.314;11.562;2022-10-18T07:04:32;22.70;85.70
1956;DHT22;978;48.314;11.562;2022-10-18T07:06:58;22.70;85.70
1956;DHT22;978;48.314;11.562;2022-10-18T07:09:27;22.70;85.60
1956;DHT22;978;48.314;11.562;2022-10-18T07:11:53;22.70;85.60
1956;DHT22;978;48.314;11.562;2022-10-18T07:14:20;22.70;85.60
1956;DHT22;978;48.314;11.562;2022-10-18T07:16:47;22.70;85.60
1956;DHT22;978;48.314;11.562;2022-10-18T07:19:13;22.70;85.50
1956;DHT22;978;48.314;11.562;2022-10-18T07:21:40;22.70;85.60
1956;DHT22;978;48.314;11.562;2022-10-18T07:24:07;22.70;85.60
1956;DHT22;978;48.314;11.562;2022-10-18T07:26:35;22.70;85.60
1956;DHT22;978;48.314;11.562;2022-10-18T07:29:05;22.70;85.50
1956;DHT22;978;48.314;11.562;2022-10-18T07:31:32;22.70;85.50
1956;DHT22;978;48.314;11.562;2022-10-18T07:34:00;22.70;85.50
1956;DHT22;978;48.314;11.562;2022-10-18T07:36:26;22.70;85.50
1956;DHT22;978;48.314;11.562;2022-10-18T07:38:53;22.70;85.50
1956;DHT22;978;48.314;11.562;2022-10-18T07:41:20;22.70;85.50
1956;DHT22;978;48.314;11.562;2022-10-18T07:43:50;22.70;85.50
1956;DHT22;978;48.314;11.562;2022-10-18T07:46:17;22.70;85.40
1956;DHT22;978;48.314;11.562;2022-10-18T07:48:44;22.70;85.50
1956;DHT22;978;48.314;11.562;2022-10-18T07:51:11;22.70;85.50
1956;DHT22;978;48.314;11.562;2022-10-18T07:53:38;22.70;85.40
1956;DHT22;978;48.314;11.562;2022-10-18T07:56:07;22.70;85.40
1956;DHT22;978;48.314;11.562;2022-10-18T07:58:36;22.70;85.40
1956;DHT22;978;48.314;11.562;2022-10-18T08:01:05;22.70;85.40
1956;DHT22;978;48.314;11.562;2022-10-18T08:03:32;22.70;85.40
1956;DHT22;978;48.314;11.562;2022-10-18T08:05:59;22.70;85.50
1956;DHT22;978;48.314;11.562;2022-10-18T08:08:27;22.70;85.40
1956;DHT22;978;48.314;11.562;2022-10-18T08:10:54;22.70;85.40
1956;DHT22;978;48.314;11.562;2022-10-18T08:13:21;22.70;85.50
1956;DHT22;978;48.314;11.562;2022-10-18T08:15:47;22.70;85.40
1956;DHT22;978;48.314;11.562;2022-10-18T08:18:15;22.70;85.40
1956;DHT22;978;48.314;11.562;2022-10-18T08:20:42;22.70;85.40
1956;DHT22;978;48.314;11.562;2022-10-18T08:23:09;22.70;85.40
1956;DHT22;978;48.314;11.562;2022-10-18T08:25:36;22.70;85.40
1956;DHT22;978;48.314;11.562;2022-10-18T08:28:03;22.70;85.40
1956;DHT22;978;48.314;11.562;2022-10-18T08:30:30;22.70;85.40
1956;DHT22;978;48.314;11.562;2022-10-18T08:32:57;22.70;85.40
1956;DHT22;978;48.314;11.562;2022-10-18T08:35:25;22.70;85.40
1956;DHT22;978;48.314;11.562;2022-10-18T08:37:51;22.70;85.40
1956;DHT22;978;48.314;11.562;2022-10-18T08:40:18;22.70;85.40
1956;DHT22;978;48.314;11.562;2022-10-18T08:42:59;22.70;85.50
1956;DHT22;978;48.314;11.562;2022-10-18T08:45:29;22.70;85.50
1956;DHT22;978;48.314;11.562;2022-10-18T08:48:00;22.70;85.50
1956;DHT22;978;48.314;11.562;2022-10-18T08:50:31;22.70;85.50
1956;DHT22;978;48.314;11.562;2022-10-18T08:53:08;22.70;85.50
1956;DHT22;978;48.314;11.562;2022-10-18T08:55:42;22.70;85.40
1956;DHT22;978;48.314;11.562;2022-10-18T08:58:14;22.70;85.50
1956;DHT22;978;48.314;11.562;2022-10-18T09:00:48;22.70;85.50
1956;DHT22;978;48.314;11.562;2022-10-18T09:03:25;22.70;85.50
1956;DHT22;978;48.314;11.562;2022-10-18T09:06:02;22.70;85.50
1956;DHT22;978;48.314;11.562;2022-10-18T09:08:49;22.70;85.50
1956;DHT22;978;48.314;11.562;2022-10-18T09:11:29;22.70;85.50
1956;DHT22;978;48.314;11.562;2022-10-18T09:14:15;22.70;85.50
1956;DHT22;978;48.314;11.562;2022-10-18T09:16:51;22.70;85.50
1956;DHT22;978;48.314;11.562;2022-10-18T09:19:29;22.70;85.60
1956;DHT22;978;48.314;11.562;2022-10-18T09:22:06;22.70;85.50
1956;DHT22;978;48.314;11.562;2022-10-18T09:24:39;22.70;85.60
1956;DHT22;978;48.314;11.562;2022-10-18T09:27:13;22.70;85.60
1956;DHT22;978;48.314;11.562;2022-10-18T09:29:50;22.70;85.60
1956;DHT22;978;48.314;11.562;2022-10-18T09:32:26;22.70;85.60
1956;DHT22;978;48.314;11.562;2022-10-18T09:34:57;22.70;85.60
1956;DHT22;978;48.314;11.562;2022-10-18T09:37:29;22.70;85.60
1956;DHT22;978;48.314;11.562;2022-10-18T09:40:03;22.70;85.60
1956;DHT22;978;48.314;11.562;2022-10-18T09:42:36;22.70;86.20
1956;DHT22;978;48.314;11.562;2022-10-18T09:45:13;22.70;85.70
1956;DHT22;978;48.314;11.562;2022-10-18T09:47:45;22.70;85.70
1956;DHT22;978;48.314;11.562;2022-10-18T09:50:16;22.70;85.70
1956;DHT22;978;48.314;11.562;2022-10-18T09:52:50;22.70;85.70
1956;DHT22;978;48.314;11.562;2022-10-18T09:55:22;22.70;85.70
1956;DHT22;978;48.314;11.562;2022-10-18T09:57:54;22.70;85.70
1956;DHT22;978;48.314;11.562;2022-10-18T10:00:25;22.70;85.70
1956;DHT22;978;48.314;11.562;2022-10-18T10:02:53;22.70;85.70
1956;DHT22;978;48.314;11.562;2022-10-18T10:05:20;22.70;85.70
1956;DHT22;978;48.314;11.562;2022-10-18T10:07:48;22.70;85.70
1956;DHT22;978;48.314;11.562;2022-10-18T10:10:23;22.70;85.70
1956;DHT22;978;48.314;11.562;2022-10-18T10:13:02;22.70;85.70
1956;DHT22;978;48.314;11.562;2022-10-18T10:15:30;22.70;85.80
1956;DHT22;978;48.314;11.562;2022-10-18T10:18:00;22.70;85.70
1956;DHT22;978;48.314;11.562;2022-10-18T10:20:32;22.70;85.80
1956;DHT22;978;48.314;11.562;2022-10-18T10:23:06;22.70;85.80
1956;DHT22;978;48.314;11.562;2022-10-18T10:25:36;22.70;85.80
1956;DHT22;978;48.314;11.562;2022-10-18T10:28:05;22.70;85.80
1956;DHT22;978;48.314;11.562;2022-10-18T10:30:34;22.70;85.80
1956;DHT22;978;48.314;11.562;2022-10-18T10:33:02;22.70;85.80
1956;DHT22;978;48.314;11.562;2022-10-18T10:35:31;22.70;85.80
1956;DHT22;978;48.314;11.562;2022-10-18T10:37:58;22.70;85.80
1956;DHT22;978;48.314;11.562;2022-10-18T10:40:28;22.70;86.40
1956;DHT22;978;48.314;11.562;2022-10-18T10:43:11;22.70;85.80
1956;DHT22;978;48.314;11.562;2022-10-18T10:45:54;22.70;85.80
1956;DHT22;978;48.314;11.562;2022-10-18T10:48:22;22.70;85.80
1956;DHT22;978;48.314;11.562;2022-10-18T10:50:52;22.70;85.80
1956;DHT22;978;48.314;11.562;2022-10-18T10:53:36;22.70;85.80
1956;DHT22;978;48.314;11.562;2022-10-18T10:56:06;22.70;86.30
1956;DHT22;978;48.314;11.562;2022-10-18T10:58:39;22.70;85.70
1956;DHT22;978;48.314;11.562;2022-10-18T11:01:22;22.70;85.70
1956;DHT22;978;48.314;11.562;2022-10-18T11:03:51;22.70;85.70
1956;DHT22;978;48.314;11.562;2022-10-18T11:06:30;22.70;85.70
1956;DHT22;978;48.314;11.562;2022-10-18T11:09:00;22.70;85.70
1956;DHT22;978;48.314;11.562;2022-10-18T11:11:32;22.70;85.70
1956;DHT22;978;48.314;11.562;2022-10-18T11:14:05;22.70;85.70
1956;DHT22;978;48.314;11.562;2022-10-18T11:16:38;22.70;85.70
1956;DHT22;978;48.314;11.562;2022-10-18T11:19:13;22.70;85.70
1956;DHT22;978;48.314;11.562;2022-10-18T11:21:42;22.70;85.70
1956;DHT22;978;48.314;11.562;2022-10-18T11:24:14;22.70;85.70
1956;DHT22;978;48.314;11.562;2022-10-18T11:26:48;22.70;85.70
1956;DHT22;978;48.314;11.562;2022-10-18T11:29:30;22.70;85.70
1956;DHT22;978;48.314;11.562;2022-10-18T11:32:07;22.70;85.70
1956;DHT22;978;48.314;11.562;2022-10-18T11:34:51;22.70;85.80
1956;DHT22;978;48.314;11.562;2022-10-18T11:40:31;22.70;85.80
1956;DHT22;978;48.314;11.562;2022-10-18T11:43:09;22.70;85.80
1956;DHT22;978;48.314;11.562;2022-10-18T11:45:41;22.70;85.80
1956;DHT22;978;48.314;11.562;2022-10-18T11:48:26;22.70;85.80
1956;DHT22;978;48.314;11.562;2022-10-18T11:51:00;22.70;85.80
1956;DHT22;978;48.314;11.562;2022-10-18T11:53:35;22.70;85.80
1956;DHT22;978;48.314;11.562;2022-10-18T11:56:10;22.70;85.80
1956;DHT22;978;48.314;11.562;2022-10-18T11:58:58;22.70;85.80
1956;DHT22;978;48.314;11.562;2022-10-18T12:01:33;22.70;85.80
1956;DHT22;978;48.314;11.562;2022-10-18T12:04:04;22.70;85.90
1956;DHT22;978;48.314;11.562;2022-10-18T12:06:36;22.70;85.80
1956;DHT22;978;48.314;11.562;2022-10-18T12:09:21;22.70;85.90
1956;DHT22;978;48.314;11.562;2022-10-18T12:11:51;22.70;85.90
1956;DHT22;978;48.314;11.562;2022-10-18T12:14:24;22.70;85.90
1956;DHT22;978;48.314;11.562;2022-10-18T12:16:53;22.70;85.80
1956;DHT22;978;48.314;11.562;2022-10-18T12:19:25;22.70;85.80
1956;DHT22;978;48.314;11.562;2022-10-18T12:21:54;22.70;85.90
1956;DHT22;978;48.314;11.562;2022-10-18T12:24:24;22.70;85.90
1956;DHT22;978;48.314;11.562;2022-10-18T12:26:57;22.70;85.90
1956;DHT22;978;48.314;11.562;2022-10-18T12:29:30;22.70;85.90
1956;DHT22;978;48.314;11.562;2022-10-18T12:32:02;22.70;85.90
1956;DHT22;978;48.314;11.562;2022-10-18T12:34:35;22.70;85.90
1956;DHT22;978;48.314;11.562;2022-10-18T12:37:32;22.70;85.90
1956;DHT22;978;48.314;11.562;2022-10-18T12:40:04;22.70;85.80
1956;DHT22;978;48.314;11.562;2022-10-18T12:42:33;22.70;85.80
1956;DHT22;978;48.314;11.562;2022-10-18T12:45:23;22.70;85.80
1956;DHT22;978;48.314;11.562;2022-10-18T12:47:50;22.70;85.80
1956;DHT22;978;48.314;11.562;2022-10-18T12:50:27;22.70;85.80
1956;DHT22;978;48.314;11.562;2022-10-18T12:53:05;22.70;85.80
1956;DHT22;978;48.314;11.562;2022-10-18T12:55:34;22.70;85.80
1956;DHT22;978;48.314;11.562;2022-10-18T13:00:58;22.70;85.80
1956;DHT22;978;48.314;11.562;2022-10-18T13:09:32;22.70;85.80
1956;DHT22;978;48.314;11.562;2022-10-18T13:12:41;22.70;85.80
1956;DHT22;978;48.314;11.562;2022-10-18T13:15:29;22.70;85.70
1956;DHT22;978;48.314;11.562;2022-10-18T13:18:04;22.70;85.70
1956;DHT22;978;48.314;11.562;2022-10-18T13:20:37;22.70;85.70
1956;DHT22;978;48.314;11.562;2022-10-18T13:23:12;22.70;85.70
1956;DHT22;978;48.314;11.562;2022-10-18T13:25:56;22.70;85.70
1956;DHT22;978;48.314;11.562;2022-10-18T13:28:31;22.70;85.70
1956;DHT22;978;48.314;11.562;2022-10-18T13:31:07;22.70;85.70
1956;DHT22;978;48.314;11.562;2022-10-18T13:33:36;22.70;85.70
1956;DHT22;978;48.314;11.562;2022-10-18T13:36:05;22.70;85.70
1956;DHT22;978;48.314;11.562;2022-10-18T13:38:46;22.70;85.70
1956;DHT22;978;48.314;11.562;2022-10-18T13:41:26;22.70;85.70
1956;DHT22;978;48.314;11.562;2022-10-18T13:44:08;22.70;85.70
1956;DHT22;978;48.314;11.562;2022-10-18T13:50:09;22.70;85.70
1956;DHT22;978;48.314;11.562;2022-10-18T13:53:02;22.70;85.70
1956;DHT22;978;48.314;11.562;2022-10-18T13:55:45;22.70;85.70
1956;DHT22;978;48.314;11.562;2022-10-18T13:58:19;22.70;85.70
1956;DHT22;978;48.314;11.562;2022-10-18T14:01:01;22.70;85.70
1956;DHT22;978;48.314;11.562;2022-10-18T14:03:58;22.70;85.70
1956;DHT22;978;48.314;11.562;2022-10-18T14:06:33;22.70;86.20
1956;DHT22;978;48.314;11.562;2022-10-18T14:09:03;22.70;85.70
1956;DHT22;978;48.314;11.562;2022-10-18T14:11:36;22.70;85.60
1956;DHT22;978;48.314;11.562;2022-10-18T14:14:13;22.70;85.60
1956;DHT22;978;48.314;11.562;2022-10-18T14:16:45;22.70;85.60
1956;DHT22;978;48.314;11.562;2022-10-18T14:19:17;22.70;85.60
1956;DHT22;978;48.314;11.562;2022-10-18T14:21:51;22.70;85.60
1956;DHT22;978;48.314;11.562;2022-10-18T14:24:21;22.70;85.60
1956;DHT22;978;48.314;11.562;2022-10-18T14:27:11;22.70;85.60
1956;DHT22;978;48.314;11.562;2022-10-18T14:29:39;22.70;85.60
1956;DHT22;978;48.314;11.562;2022-10-18T14:32:10;22.70;85.60
1956;DHT22;978;48.314;11.562;2022-10-18T14:34:43;22.70;85.60
1956;DHT22;978;48.314;11.562;2022-10-18T14:37:20;22.70;85.60
1956;DHT22;978;48.314;11.562;2022-10-18T14:39:47;22.70;85.60
1956;DHT22;978;48.314;11.562;2022-10-18T14:42:19;22.70;85.60
1956;DHT22;978;48.314;11.562;2022-10-18T14:44:49;22.70;85.50
1956;DHT22;978;48.314;11.562;2022-10-18T14:47:19;22.70;85.50
1956;DHT22;978;48.314;11.562;2022-10-18T14:49:46;22.70;85.50
1956;DHT22;978;48.314;11.562;2022-10-18T14:52:15;22.70;86.10
1956;DHT22;978;48.314;11.562;2022-10-18T14:54:42;22.70;85.50
1956;DHT22;978;48.314;11.562;2022-10-18T14:57:16;22.70;85.50
1956;DHT22;978;48.314;11.562;2022-10-18T14:59:46;22.70;85.60
1956;DHT22;978;48.314;11.562;2022-10-18T15:02:20;22.70;85.60
1956;DHT22;978;48.314;11.562;2022-10-18T15:04:55;22.70;85.50
1956;DHT22;978;48.314;11.562;2022-10-18T15:07:22;22.70;85.50
1956;DHT22;978;48.314;11.562;2022-10-18T15:09:50;22.70;85.50
1956;DHT22;978;48.314;11.562;2022-10-18T15:12:17;22.70;85.50
1956;DHT22;978;48.314;11.562;2022-10-18T15:14:44;22.70;85.50
1956;DHT22;978;48.314;11.562;2022-10-18T15:17:14;22.70;85.50
1956;DHT22;978;48.314;11.562;2022-10-18T15:19:55;22.70;85.50
1956;DHT22;978;48.314;11.562;2022-10-18T15:22:23;22.60;85.50
1956;DHT22;978;48.314;11.562;2022-10-18T15:25:08;22.70;85.50
1956;DHT22;978;48.314;11.562;2022-10-18T15:27:37;22.60;85.50
1956;DHT22;978;48.314;11.562;2022-10-18T15:30:06;22.70;85.60
1956;DHT22;978;48.314;11.562;2022-10-18T15:32:33;22.70;85.60
1956;DHT22;978;48.314;11.562;2022-10-18T15:35:08;22.70;85.60
1956;DHT22;978;48.314;11.562;2022-10-18T15:37:40;22.70;85.60
1956;DHT22;978;48.314;11.562;2022-10-18T15:40:24;22.60;85.50
1956;DHT22;978;48.314;11.562;2022-10-18T15:42:56;22.70;85.60
1956;DHT22;978;48.314;11.562;2022-10-18T15:45:39;22.60;85.50
1956;DHT22;978;48.314;11.562;2022-10-18T15:48:19;22.70;85.60
1956;DHT22;978;48.314;11.562;2022-10-18T15:50:49;22.70;85.60
1956;DHT22;978;48.314;11.562;2022-10-18T15:53:30;22.70;85.60
1956;DHT22;978;48.314;11.562;2022-10-18T15:55:57;22.60;85.60
1956;DHT22;978;48.314;11.562;2022-10-18T15:58:26;22.60;85.60
1956;DHT22;978;48.314;11.562;2022-10-18T16:00:57;22.70;85.70
1956;DHT22;978;48.314;11.562;2022-10-18T16:03:25;22.60;85.60
1956;DHT22;978;48.314;11.562;2022-10-18T16:05:57;22.60;85.60
1956;DHT22;978;48.314;11.562;2022-10-18T16:08:26;22.60;85.70
1956;DHT22;978;48.314;11.562;2022-10-18T16:10:55;22.70;85.70
1956;DHT22;978;48.314;11.562;2022-10-18T16:13:22;22.60;85.70
1956;DHT22;978;48.314;11.562;2022-10-18T16:15:48;22.60;85.70
1956;DHT22;978;48.314;11.562;2022-10-18T16:18:17;22.60;85.70
1956;DHT22;978;48.314;11.562;2022-10-18T16:20:45;22.60;85.80
1956;DHT22;978;48.314;11.562;2022-10-18T16:23:19;22.60;85.70
1956;DHT22;978;48.314;11.562;2022-10-18T16:25:46;22.60;85.80
1956;DHT22;978;48.314;11.562;2022-10-18T16:28:15;22.60;85.80
1956;DHT22;978;48.314;11.562;2022-10-18T16:30:45;22.60;85.80
1956;DHT22;978;48.314;11.562;2022-10-18T16:33:12;22.60;85.80
1956;DHT22;978;48.314;11.562;2022-10-18T16:35:39;22.60;85.80
1956;DHT22;978;48.314;11.562;2022-10-18T16:38:12;22.60;85.90
1956;DHT22;978;48.314;11.562;2022-10-18T16:40:43;22.70;85.90